Terminal Aerodrome Forecast
Issued by NWS

Home | Current Version | Previous Version | Text Only | Print | Product List | Glossary On
Versions: 1 2 3 4 5 6 7 8 9 10 11 12 13 14
000
FTUS45 KGGW 310527
TAFGDV
TAF
KGDV 310527Z 3106/0106 28011KT P6SM BKN050
     FM311300 29015KT P6SM -SHRA BKN010
     FM311800 32016KT 5SM -SHRA OVC009
     FM312200 32017G25KT P6SM VCSH OVC035
     FM010000 33014KT P6SM BKN045
      AMD LTD TO CLD VIS AND WIND=

USA.gov is the U.S. government's official web portal to all federal, state and local government web resources and services.